Dragoon, AZ (85609)

8:31 PM MST on December 17, 2014 (GMT -0700)
Golden Rule Vineyards | Change Station
CLOSE
Current Station
Personal Weather Station
Location: Cochise, AZ
Elevation: 4360 ft
Nearby Weather Stations

Elev 4360 ft 32.06 °N, 109.96 °W | Updated 9 seconds ago

Rain
Rain
42.6 °F
Feels Like 43 °F
N
0.0
Wind Variable Wind from North
Gusts 1.0 mph

Today
High -- | Low -- °F
--% Chance of Precip.
Yesterday
High -- | Low -- °F
Precip. -- in
7:14 AM 5:18 PM
Waning Crescent, 17% visible
Pressure 30.08 in
Visibility 10.0 miles
Clouds Few 3000 ft
Scattered Clouds 4500 ft
Mostly Cloudy 7000 ft
Windchill 43 °F
Dew Point 41 °F
Humidity 95%
Rainfall 0.33 in
Snow Depth Not available.
UV 0 out of 12
Pollen 4.70 out of 12
Air Quality Not available.
Flu Activity Not available.
METAR KFHU 180255Z 21005KT 10SM FEW030 SCT045 BKN070 09/03 A3012 RMK SLP186 53012

More Conditions Fewer Conditions

Pressure 30.08 in
Visibility 10.0 miles
Clouds Few 3000 ft
Scattered Clouds 4500 ft
Mostly Cloudy 7000 ft
Windchill 43 °F
Dew Point 41 °F
Humidity 95%
Rainfall 0.33 in
Snow Depth Not available.
UV 0 out of 12
Pollen 4.70 out of 12
Air Quality Not available.
Flu Activity Not available.
METAR KFHU 180255Z 21005KT 10SM FEW030 SCT045 BKN070 09/03 A3012 RMK SLP186 53012

More Conditions Fewer Conditions

Nowcast | as of 7:39 PM MST on December 17, 2014

Widespread light to moderate showers continue across southeast Pinal...southeast Pima and northern Cochise counties. These storms will move east at 20 mph through the evening hours. Valley locations will receive generally less than a quarter inch of rain...with isolated spots seeing as much as a half inch. Moderate to heavy snow showers in the mountains will produce 1 to 3 inches of additional snowfall above 7000 feet the rest of this evening.

×

10-Day Weather Forecast

Almanac

Astronomy

Dec. 17, 2014 Rise Set
Actual Time
Civil Twilight
Nautical Twilight
Astronomical Twilight
Moon
Length of Visible Light
Length of Day
Tomorrow will be .
, % of the Moon is Illuminated

Today's Extremes

State Highs State Lows

Community

WunderPhotos

Upload Photos

1,778,877 photos uploaded!

WunderBlogs® & News

Nearby

Air Quality

  Air Quality AQ Index Pollutant
Not available.

Snow Depth

Station Depth Elevation

Earthquake Activity

City Distance Mag. Time & Date
Minimum magnitude displayed is 2.5.

Coastal Water Temperatures

Place Temperature

Nearby Weather Stations